createdAt,value
2022-09-07T00:00:27.469Z,54.21
2022-09-07T00:01:27.495Z,49.86
2022-09-07T00:02:27.584Z,45.08
2022-09-07T00:03:27.729Z,46.75
2022-09-07T00:04:27.625Z,56.71
2022-09-07T00:05:27.448Z,56.04
2022-09-07T00:06:27.462Z,46.93
2022-09-07T00:07:27.410Z,46.27
2022-09-07T00:08:28.472Z,50.65
2022-09-07T00:09:27.388Z,50.09
2022-09-07T00:10:27.445Z,44.48
2022-09-07T00:11:27.471Z,49.85
2022-09-07T00:12:27.405Z,49.69
2022-09-07T00:13:27.499Z,55.30
2022-09-07T00:14:27.388Z,56.43
2022-09-07T00:15:28.346Z,54.63
2022-09-07T00:16:27.478Z,54.24
2022-09-07T00:17:27.323Z,44.29
2022-09-07T00:18:27.377Z,44.68
2022-09-07T00:19:28.331Z,44.53
2022-09-07T00:20:27.319Z,59.10
2022-09-07T00:21:27.419Z,52.50
2022-09-07T00:22:27.312Z,45.02
2022-09-07T00:23:27.320Z,44.23
2022-09-07T00:24:27.340Z,57.37
2022-09-07T00:25:29.808Z,52.93
2022-09-07T00:26:27.309Z,43.76
2022-09-07T00:27:27.852Z,47.41
2022-09-07T00:28:27.288Z,47.95
2022-09-07T00:29:27.260Z,44.19
2022-09-07T00:30:27.266Z,50.04
2022-09-07T00:31:27.317Z,45.33
2022-09-07T00:32:27.277Z,52.47
2022-09-07T00:33:27.226Z,45.01
2022-09-07T00:34:27.212Z,50.10
2022-09-07T00:35:27.397Z,43.45
2022-09-07T00:36:27.216Z,51.51
2022-09-07T00:37:27.243Z,54.26
2022-09-07T00:38:27.257Z,50.40
2022-09-07T00:39:27.206Z,49.06
2022-09-07T00:40:27.179Z,46.21
2022-09-07T00:41:27.267Z,48.68
2022-09-07T00:42:27.171Z,48.96
2022-09-07T00:43:27.163Z,58.69
2022-09-07T00:44:27.177Z,49.00
2022-09-07T00:45:27.170Z,42.81
2022-09-07T00:46:27.207Z,43.07
2022-09-07T00:47:27.173Z,54.68
2022-09-07T00:48:27.111Z,48.12
2022-09-07T00:49:27.094Z,62.04
2022-09-07T00:50:27.121Z,48.71
2022-09-07T00:51:27.095Z,55.73
2022-09-07T00:52:27.052Z,56.30
2022-09-07T00:53:27.044Z,51.98
2022-09-07T00:54:27.072Z,46.73
2022-09-07T00:55:27.128Z,59.71
2022-09-07T00:56:27.066Z,43.01
2022-09-07T00:57:27.103Z,56.14
2022-09-07T00:58:27.064Z,48.29
2022-09-07T00:59:27.049Z,48.82
2022-09-07T01:00:27.006Z,43.19
2022-09-07T01:01:27.156Z,44.05
2022-09-07T01:02:27.094Z,50.80
2022-09-07T01:03:27.020Z,51.82
2022-09-07T01:04:26.981Z,48.33
2022-09-07T01:05:26.964Z,50.70
2022-09-07T01:06:27.015Z,43.22
2022-09-07T01:07:27.007Z,43.27
2022-09-07T01:08:27.005Z,43.02
2022-09-07T01:09:26.940Z,43.87
2022-09-07T01:10:26.964Z,43.17
2022-09-07T01:11:26.964Z,43.20
2022-09-07T01:12:26.953Z,43.36
2022-09-07T01:13:26.946Z,43.08
2022-09-07T01:14:26.906Z,43.18
2022-09-07T01:15:26.888Z,53.68
2022-09-07T01:16:27.019Z,44.37
2022-09-07T01:17:26.951Z,48.87
2022-09-07T01:18:26.925Z,42.94
2022-09-07T01:19:26.882Z,53.76
2022-09-07T01:20:26.998Z,47.20
2022-09-07T01:21:26.861Z,43.09
2022-09-07T01:22:26.818Z,43.83
2022-09-07T01:23:26.846Z,53.43
2022-09-07T01:24:27.841Z,50.74
2022-09-07T01:25:26.858Z,48.75
2022-09-07T01:26:26.870Z,50.75
2022-09-07T01:27:26.832Z,45.84
2022-09-07T01:28:26.939Z,43.41
2022-09-07T01:29:26.798Z,48.57
2022-09-07T01:30:26.838Z,43.39
2022-09-07T01:31:26.851Z,43.59
2022-09-07T01:32:26.761Z,48.08
2022-09-07T01:33:27.801Z,48.26
2022-09-07T01:34:26.762Z,44.31
2022-09-07T01:35:26.770Z,44.48
2022-09-07T01:36:26.736Z,53.05
2022-09-07T01:37:26.699Z,45.60
2022-09-07T01:38:26.776Z,50.96
2022-09-07T01:39:26.803Z,47.50
2022-09-07T01:40:26.763Z,53.59
2022-09-07T01:41:26.787Z,44.21
2022-09-07T01:42:26.685Z,49.63
2022-09-07T01:43:26.690Z,50.11
2022-09-07T01:44:26.703Z,44.05
2022-09-07T02:03:42.180Z,43.13
2022-09-07T02:04:43.384Z,43.14
2022-09-07T02:05:43.312Z,43.78
2022-09-07T02:06:43.331Z,51.10
2022-09-07T02:07:43.378Z,44.76
2022-09-07T02:08:43.315Z,50.23
2022-09-07T02:09:43.311Z,43.75
2022-09-07T02:10:43.358Z,43.78
2022-09-07T02:11:43.297Z,43.65
2022-09-07T02:12:43.343Z,44.17
2022-09-07T02:13:43.337Z,43.55
2022-09-07T02:14:43.368Z,43.80
2022-09-07T02:15:43.306Z,43.72
2022-09-07T02:16:43.952Z,47.44
2022-09-07T02:17:43.311Z,46.62
2022-09-07T02:18:43.298Z,49.32
2022-09-07T02:19:44.426Z,43.54
2022-09-07T02:20:43.308Z,43.62
2022-09-07T02:21:43.245Z,53.05
2022-09-07T02:23:16.839Z,43.98
2022-09-07T02:23:43.182Z,44.09
2022-09-07T02:24:43.179Z,53.94
2022-09-07T02:25:43.256Z,51.57
2022-09-07T02:26:43.236Z,46.17
2022-09-07T02:27:43.250Z,48.65
2022-09-07T02:28:43.960Z,52.73
2022-09-07T02:29:43.220Z,55.37
2022-09-07T02:30:43.214Z,49.49
2022-09-07T02:31:43.185Z,44.07
2022-09-07T02:32:43.197Z,60.67
2022-09-07T02:33:43.200Z,51.80
2022-09-07T02:34:43.115Z,49.63
2022-09-07T02:35:43.146Z,48.69
2022-09-07T02:36:43.113Z,49.62
2022-09-07T02:37:43.144Z,49.36
2022-09-07T02:38:43.128Z,48.43
2022-09-07T02:39:43.184Z,50.83
2022-09-07T02:40:43.116Z,50.86
2022-09-07T02:41:43.067Z,57.34
2022-09-07T02:42:43.078Z,56.64
2022-09-07T02:43:43.083Z,58.77
2022-09-07T02:44:43.069Z,53.09
2022-09-07T02:45:43.094Z,43.79
2022-09-07T02:46:43.153Z,47.84
2022-09-07T02:47:43.025Z,44.81
2022-09-07T02:48:43.031Z,56.93
2022-09-07T02:49:43.003Z,51.15
2022-09-07T02:50:43.044Z,44.12
2022-09-07T02:51:43.058Z,49.95
2022-09-07T02:52:43.024Z,58.78
2022-09-07T02:53:43.051Z,50.14
2022-09-07T02:54:42.961Z,61.46
2022-09-07T02:55:42.996Z,49.68
2022-09-07T02:56:43.006Z,52.82
2022-09-07T02:57:42.958Z,62.54
2022-09-07T02:58:42.944Z,51.42
2022-09-07T02:59:42.977Z,48.71
2022-09-07T03:00:42.947Z,50.83
2022-09-07T03:01:43.020Z,45.89
2022-09-07T03:02:43.009Z,44.23
2022-09-07T03:03:42.902Z,56.36
2022-09-07T03:04:43.513Z,50.22
2022-09-07T03:05:42.990Z,59.89
2022-09-07T03:06:42.955Z,59.88
2022-09-07T03:07:44.303Z,55.50
2022-09-07T03:08:43.874Z,61.31
2022-09-07T03:09:42.932Z,51.92
2022-09-07T03:10:42.877Z,56.31
2022-09-07T03:11:42.890Z,62.18
2022-09-07T03:12:42.859Z,44.46
2022-09-07T03:13:42.827Z,52.48
2022-09-07T03:14:42.832Z,56.60
2022-09-07T03:15:42.849Z,46.97
2022-09-07T03:16:42.882Z,62.11
2022-09-07T03:17:42.806Z,59.96
2022-09-07T03:18:42.853Z,55.07
2022-09-07T03:19:42.828Z,51.87
2022-09-07T03:20:42.781Z,59.43
2022-09-07T03:21:42.758Z,59.47
2022-09-07T03:22:42.838Z,53.28
2022-09-07T03:23:42.808Z,61.94
2022-09-07T03:24:42.748Z,48.66
2022-09-07T03:25:42.737Z,53.50
2022-09-07T03:26:42.734Z,57.75
2022-09-07T03:27:42.754Z,59.74
2022-09-07T03:28:42.697Z,57.33
2022-09-07T03:29:42.854Z,58.19
2022-09-07T03:30:42.755Z,53.59
2022-09-07T03:31:42.690Z,58.40
2022-09-07T03:32:43.758Z,64.41
2022-09-07T03:33:42.659Z,58.44
2022-09-07T03:34:42.705Z,62.24
2022-09-07T03:35:42.698Z,65.11
2022-09-07T03:36:42.688Z,57.01
2022-09-07T03:37:42.664Z,62.80
2022-09-07T03:38:42.656Z,55.11
2022-09-07T03:39:42.695Z,67.64
2022-09-07T03:40:42.662Z,60.80
2022-09-07T03:41:42.620Z,63.91
2022-09-07T03:42:42.579Z,59.83
2022-09-07T03:43:42.627Z,60.23
2022-09-07T03:44:42.621Z,67.11
2022-09-07T03:45:42.651Z,65.48
2022-09-07T03:46:42.590Z,59.86
2022-09-07T04:03:42.449Z,57.27
2022-09-07T04:04:42.439Z,54.03
2022-09-07T04:05:42.452Z,64.47
2022-09-07T04:06:42.589Z,61.59
2022-09-07T04:07:42.472Z,64.32
2022-09-07T04:08:43.678Z,60.68
2022-09-07T04:09:44.496Z,65.35
2022-09-07T04:10:43.599Z,62.73
2022-09-07T04:11:43.627Z,63.88
2022-09-07T04:12:43.631Z,62.51
2022-09-07T04:13:43.665Z,66.78
2022-09-07T04:14:43.603Z,64.66
2022-09-07T04:15:43.610Z,64.42
2022-09-07T04:16:43.647Z,55.23
2022-09-07T04:17:44.479Z,68.45
2022-09-07T04:18:44.975Z,67.83
2022-09-07T04:19:43.521Z,60.21
2022-09-07T04:20:43.582Z,60.76
2022-09-07T04:21:43.491Z,64.65
2022-09-07T04:22:43.504Z,61.37
2022-09-07T04:23:43.511Z,67.14
2022-09-07T04:24:43.487Z,59.78
2022-09-07T04:25:43.447Z,59.04
2022-09-07T04:26:43.448Z,66.61
2022-09-07T04:27:43.473Z,64.57
2022-09-07T04:28:43.441Z,61.08
2022-09-07T04:29:44.085Z,64.45
2022-09-07T04:30:43.489Z,67.50
2022-09-07T04:31:43.421Z,63.24
2022-09-07T04:32:43.460Z,66.87
2022-09-07T04:33:43.432Z,64.03
2022-09-07T04:34:43.414Z,68.24
2022-09-07T04:35:43.394Z,63.81
2022-09-07T04:36:43.454Z,64.48
2022-09-07T04:37:43.478Z,68.78
2022-09-07T04:38:43.487Z,68.69
2022-09-07T04:39:44.316Z,65.34
2022-09-07T04:40:43.396Z,64.30
2022-09-07T04:41:43.397Z,66.94
2022-09-07T04:42:43.363Z,69.74
2022-09-07T04:43:43.423Z,67.80
2022-09-07T04:44:43.423Z,69.16
2022-09-07T04:45:43.437Z,63.16
2022-09-07T04:46:43.341Z,66.32
2022-09-07T04:47:43.369Z,71.03
2022-09-07T04:48:43.417Z,67.82
2022-09-07T04:49:44.246Z,69.44
2022-09-07T04:50:43.364Z,68.83
2022-09-07T04:51:43.298Z,65.44
2022-09-07T04:52:43.323Z,66.30
2022-09-07T04:53:43.254Z,70.01
2022-09-07T04:54:43.269Z,72.57
2022-09-07T04:55:43.250Z,67.73
2022-09-07T04:56:43.223Z,72.71
2022-09-07T04:57:43.261Z,64.54
2022-09-07T04:58:43.285Z,61.80
2022-09-07T04:59:43.247Z,64.36
2022-09-07T05:00:43.224Z,71.50
2022-09-07T05:01:43.803Z,63.39
2022-09-07T05:02:43.324Z,57.75
2022-09-07T05:03:43.230Z,71.92
2022-09-07T05:04:43.210Z,74.53
2022-09-07T05:05:43.176Z,74.93
2022-09-07T05:06:43.164Z,71.66
2022-09-07T05:07:43.757Z,69.11
2022-09-07T05:08:43.161Z,71.02
2022-09-07T05:09:43.140Z,72.88
2022-09-07T05:10:43.099Z,68.41
2022-09-07T05:11:43.090Z,71.68
2022-09-07T05:12:43.134Z,70.70
2022-09-07T05:13:43.067Z,70.12
2022-09-07T05:14:43.132Z,74.35
2022-09-07T05:15:43.096Z,72.56
2022-09-07T05:16:43.137Z,69.48
2022-09-07T05:17:43.097Z,71.24
2022-09-07T05:18:43.092Z,69.72
2022-09-07T05:19:43.060Z,68.59
2022-09-07T05:20:43.081Z,71.02
2022-09-07T05:21:43.024Z,68.84
2022-09-07T05:22:43.059Z,74.42
2022-09-07T05:23:42.978Z,71.49
2022-09-07T05:24:42.980Z,70.26
2022-09-07T05:25:42.979Z,73.10
2022-09-07T05:26:43.051Z,70.80
2022-09-07T05:27:43.023Z,74.24
2022-09-07T05:28:42.970Z,72.86
2022-09-07T05:31:44.952Z,73.29
2022-09-07T05:32:42.945Z,69.23
2022-09-07T05:34:46.055Z,72.36
2022-09-07T05:35:42.918Z,73.13
2022-09-07T05:36:42.920Z,70.89
2022-09-07T05:37:42.959Z,71.58
2022-09-07T05:38:42.898Z,72.57
2022-09-07T05:39:43.015Z,69.62
2022-09-07T05:40:42.864Z,69.17
2022-09-07T05:41:42.860Z,70.46
2022-09-07T05:42:42.867Z,69.55
2022-09-07T05:44:45.403Z,68.24
2022-09-07T05:45:42.881Z,71.95
2022-09-07T05:46:42.876Z,69.98
2022-09-07T05:47:42.837Z,72.10
2022-09-07T05:48:42.804Z,71.23
2022-09-07T05:49:42.803Z,67.37
2022-09-07T05:50:42.791Z,72.80
2022-09-07T05:51:42.771Z,70.10
2022-09-07T05:52:42.794Z,71.49
2022-09-07T05:53:42.808Z,63.69
2022-09-07T05:54:42.758Z,68.83
2022-09-07T05:55:42.752Z,68.89
2022-09-07T05:56:42.746Z,68.23
2022-09-07T05:57:42.824Z,70.58
2022-09-07T05:58:42.726Z,64.31
2022-09-07T05:59:42.735Z,69.58
2022-09-07T06:00:42.787Z,69.49
2022-09-07T06:01:42.756Z,69.79
2022-09-07T06:02:42.858Z,67.86
2022-09-07T06:03:42.707Z,70.99
2022-09-07T06:04:42.689Z,68.42
2022-09-07T06:05:42.677Z,64.48
2022-09-07T06:06:54.636Z,71.83
2022-09-07T06:07:43.692Z,56.94
2022-09-07T06:08:42.710Z,70.53
2022-09-07T06:10:44.973Z,69.10
2022-09-07T06:11:42.671Z,68.46
2022-09-07T06:12:45.520Z,59.39
2022-09-07T06:13:44.658Z,68.17
2022-09-07T06:14:43.567Z,69.01
2022-09-07T06:15:42.782Z,63.32
2022-09-07T06:16:42.652Z,64.93
2022-09-07T06:17:42.640Z,69.59
2022-09-07T06:18:42.582Z,67.36
2022-09-07T06:19:42.552Z,62.27
2022-09-07T06:20:42.594Z,64.58
2022-09-07T06:21:42.576Z,65.00
2022-09-07T06:22:42.592Z,67.67
2022-09-07T06:23:42.564Z,70.10
2022-09-07T06:24:42.600Z,68.22
2022-09-07T06:25:42.666Z,65.46
2022-09-07T06:26:42.625Z,64.00
2022-09-07T06:27:42.527Z,68.45
2022-09-07T06:28:42.512Z,66.35
2022-09-07T06:29:42.509Z,66.25
2022-09-07T06:30:42.516Z,60.09
2022-09-07T06:32:44.940Z,61.58
2022-09-07T06:33:42.442Z,68.66
2022-09-07T06:34:42.447Z,57.51
2022-09-07T06:35:42.461Z,66.18
2022-09-07T06:36:42.485Z,69.19
2022-09-07T06:37:42.472Z,63.21
2022-09-07T06:38:42.430Z,67.14
2022-09-07T06:39:42.458Z,67.53
2022-09-07T06:40:42.386Z,67.47
2022-09-07T06:42:44.420Z,68.66
2022-09-07T06:43:45.572Z,69.22
2022-09-07T06:44:43.369Z,69.54
2022-09-07T06:45:42.397Z,64.36
2022-09-07T06:47:44.383Z,63.53
2022-09-07T06:48:44.484Z,66.57
2022-09-07T06:49:42.342Z,66.88
2022-09-07T06:50:42.371Z,65.13
2022-09-07T06:51:42.359Z,65.65
2022-09-07T06:53:45.208Z,61.87
2022-09-07T06:55:44.284Z,65.08
2022-09-07T06:56:42.303Z,65.71
2022-09-07T06:57:42.298Z,64.79
2022-09-07T06:58:42.554Z,61.01
2022-09-07T06:59:43.298Z,63.02
2022-09-07T07:00:42.327Z,63.90
2022-09-07T07:01:42.245Z,67.53
2022-09-07T07:02:42.250Z,65.89
2022-09-07T07:03:42.315Z,67.34
2022-09-07T07:04:42.242Z,65.18
2022-09-07T07:05:42.215Z,66.29
2022-09-07T07:06:42.234Z,63.20
2022-09-07T07:07:42.195Z,62.95
2022-09-07T07:08:42.180Z,65.74
2022-09-07T07:09:42.242Z,65.96
2022-09-07T07:10:42.198Z,65.41
2022-09-07T07:11:42.186Z,62.31
2022-09-07T07:14:28.970Z,61.39
2022-09-07T07:15:28.364Z,63.88
2022-09-07T07:16:28.337Z,68.39
2022-09-07T07:17:28.339Z,62.70
2022-09-07T07:18:28.336Z,66.21
2022-09-07T07:19:28.331Z,60.26
2022-09-07T07:20:28.388Z,66.86
2022-09-07T07:21:38.351Z,65.56
2022-09-07T07:22:46.006Z,64.24
2022-09-07T07:23:30.345Z,65.04
2022-09-07T07:24:28.304Z,62.09
2022-09-07T07:25:28.295Z,61.21
2022-09-07T07:26:28.258Z,65.23
2022-09-07T07:27:28.251Z,59.32
2022-09-07T07:29:30.307Z,62.13
2022-09-07T07:30:28.250Z,66.19
2022-09-07T07:31:28.249Z,64.18
2022-09-07T07:32:28.212Z,65.38
2022-09-07T07:33:28.247Z,62.25
2022-09-07T07:34:28.263Z,63.97
2022-09-07T07:35:28.206Z,63.89
2022-09-07T07:36:28.233Z,66.80
2022-09-07T07:37:28.450Z,66.45
2022-09-07T07:40:31.869Z,50.00
2022-09-07T07:42:30.188Z,60.93
2022-09-07T07:43:28.236Z,69.37
2022-09-07T07:44:28.195Z,69.91
2022-09-07T07:46:30.150Z,63.96
2022-09-07T07:47:28.112Z,65.06
2022-09-07T07:48:28.124Z,64.18
2022-09-07T07:49:28.123Z,63.34
2022-09-07T07:50:32.232Z,56.42
2022-09-07T07:51:29.296Z,66.51
2022-09-07T07:53:45.429Z,64.95
2022-09-07T07:54:45.245Z,61.72
2022-09-07T07:55:44.066Z,61.03
2022-09-07T07:56:30.065Z,68.06
2022-09-07T07:57:28.024Z,63.59
2022-09-07T07:58:28.112Z,64.40
2022-09-07T07:59:28.036Z,67.40
2022-09-07T08:00:50.763Z,66.33
2022-09-07T08:01:30.112Z,51.50
2022-09-07T08:02:28.146Z,61.27
2022-09-07T08:03:28.023Z,55.59
2022-09-07T08:04:27.995Z,57.51
2022-09-07T08:05:27.988Z,67.67
2022-09-07T08:06:27.985Z,63.24
2022-09-07T08:07:28.050Z,63.52
2022-09-07T08:08:27.985Z,65.32
2022-09-07T08:09:28.027Z,67.45
2022-09-07T08:10:27.975Z,63.60
2022-09-07T08:11:27.978Z,61.13
2022-09-07T08:12:29.851Z,63.95
2022-09-07T08:13:28.961Z,61.80
2022-09-07T08:14:27.940Z,65.90
2022-09-07T08:15:27.965Z,59.98
2022-09-07T08:16:28.008Z,62.61
2022-09-07T08:17:27.973Z,57.80
2022-09-07T08:18:27.919Z,56.12
2022-09-07T08:19:27.928Z,59.70
2022-09-07T08:20:27.932Z,62.12
2022-09-07T08:21:27.943Z,61.72
2022-09-07T08:22:30.713Z,65.28
2022-09-07T08:23:28.905Z,59.94
2022-09-07T08:24:27.853Z,65.58
2022-09-07T08:25:27.899Z,63.06
2022-09-07T08:26:27.902Z,65.15
2022-09-07T08:27:27.867Z,65.46
2022-09-07T08:28:27.843Z,61.33
2022-09-07T08:29:31.323Z,63.80
2022-09-07T08:30:28.859Z,65.07
2022-09-07T08:31:27.948Z,64.40
2022-09-07T08:32:27.837Z,64.41
2022-09-07T08:33:27.962Z,63.09
2022-09-07T08:34:27.851Z,66.94
2022-09-07T08:35:27.810Z,66.58
2022-09-07T08:36:29.247Z,57.00
2022-09-07T08:37:27.810Z,67.02
2022-09-07T08:38:27.838Z,59.45
2022-09-07T08:39:27.872Z,59.52
2022-09-07T08:40:27.785Z,64.53
2022-09-07T08:41:27.781Z,64.73
2022-09-07T08:42:27.763Z,62.22
2022-09-07T08:43:27.814Z,57.65
2022-09-07T08:44:27.769Z,65.49
2022-09-07T08:45:27.802Z,65.21
2022-09-07T08:46:27.893Z,61.01
2022-09-07T08:47:27.744Z,67.54
2022-09-07T08:51:28.095Z,62.75
2022-09-07T08:53:01.874Z,65.20
2022-09-07T08:53:29.394Z,62.43
2022-09-07T08:54:30.001Z,62.07
2022-09-07T08:55:28.256Z,63.98
2022-09-07T08:56:32.941Z,63.72
2022-09-07T08:57:30.362Z,61.48
2022-09-07T08:58:48.327Z,66.81
2022-09-07T08:59:30.446Z,64.15
2022-09-07T09:00:28.760Z,64.29
2022-09-07T09:02:32.612Z,68.48
2022-09-07T09:03:30.006Z,62.35
2022-09-07T09:04:29.493Z,64.47
2022-09-07T09:05:28.084Z,61.91
2022-09-07T09:06:27.992Z,61.97
2022-09-07T09:07:27.870Z,65.23
2022-09-07T09:08:28.622Z,65.32
2022-09-07T09:09:28.034Z,63.56
2022-09-07T09:10:28.014Z,66.13
2022-09-07T09:11:27.893Z,64.99
2022-09-07T09:29:30.594Z,69.56
2022-09-07T09:30:31.749Z,66.26
2022-09-07T09:31:30.620Z,62.16
2022-09-07T09:32:31.395Z,63.72
2022-09-07T09:33:30.544Z,59.97
2022-09-07T09:34:34.646Z,61.42
2022-09-07T09:35:32.058Z,61.42
2022-09-07T09:36:30.710Z,65.37
2022-09-07T09:37:30.590Z,67.27
2022-09-07T09:38:30.625Z,68.18
2022-09-07T09:39:30.584Z,66.96
2022-09-07T09:40:30.527Z,65.42
2022-09-07T09:41:31.061Z,65.96
2022-09-07T09:43:05.111Z,63.96
2022-09-07T09:46:16.389Z,63.26
2022-09-07T09:47:33.471Z,64.80
2022-09-07T09:48:20.599Z,68.84
2022-09-07T09:49:18.152Z,59.78
2022-09-07T09:52:29.311Z,63.17
2022-09-07T09:52:29.633Z,58.49
2022-09-07T09:53:19.538Z,63.84
2022-09-07T09:54:18.079Z,62.64
2022-09-07T09:55:49.653Z,64.59
2022-09-07T10:00:06.920Z,62.92
2022-09-07T10:01:22.012Z,65.95
2022-09-07T10:04:09.536Z,66.41
2022-09-07T10:05:04.904Z,61.86
2022-09-07T10:06:03.887Z,68.47
2022-09-07T10:07:03.919Z,64.43
2022-09-07T10:08:04.707Z,66.14
2022-09-07T10:09:04.784Z,64.65
2022-09-07T10:10:05.802Z,66.31
2022-09-07T10:11:03.868Z,66.67
2022-09-07T10:12:06.238Z,63.67
2022-09-07T10:13:05.126Z,65.94
2022-09-07T10:14:05.707Z,65.22
2022-09-07T10:15:04.101Z,61.78
2022-09-07T10:16:03.977Z,59.06
2022-09-07T10:17:03.944Z,56.05
2022-09-07T10:18:04.726Z,59.91
2022-09-07T10:19:05.337Z,65.49
2022-09-07T10:20:04.480Z,65.54
2022-09-07T10:21:03.807Z,64.29
2022-09-07T10:22:04.539Z,59.13
2022-09-07T10:23:07.933Z,64.27
2022-09-07T10:24:03.850Z,66.04
2022-09-07T10:25:38.748Z,63.14
2022-09-07T10:26:03.712Z,63.95
2022-09-07T10:27:03.781Z,64.59
2022-09-07T10:28:04.496Z,59.16
2022-09-07T10:29:08.002Z,64.47
2022-09-07T10:30:06.805Z,63.47
2022-09-07T10:31:05.300Z,61.59
2022-09-07T10:32:03.719Z,63.15
2022-09-07T10:33:03.705Z,62.04
2022-09-07T10:35:05.616Z,68.75
2022-09-07T10:36:05.277Z,66.09
2022-09-07T10:37:03.731Z,61.98
2022-09-07T10:38:03.742Z,67.06
2022-09-07T10:39:04.257Z,59.52
2022-09-07T10:40:03.737Z,62.19
2022-09-07T10:41:03.849Z,64.92
2022-09-07T10:42:04.420Z,63.57
2022-09-07T10:44:05.674Z,64.89
2022-09-07T10:45:04.283Z,60.85
2022-09-07T10:46:04.440Z,63.74
2022-09-07T10:47:04.691Z,61.84
2022-09-07T10:48:05.264Z,62.88
2022-09-07T10:49:04.617Z,67.89
2022-09-07T10:51:13.729Z,64.13
2022-09-07T10:52:11.779Z,63.59
2022-09-07T10:53:23.640Z,63.81
2022-09-07T10:55:07.330Z,64.28
2022-09-07T10:56:04.592Z,63.83
2022-09-07T10:57:04.262Z,65.96
2022-09-07T10:58:03.656Z,62.77
2022-09-07T10:59:04.872Z,70.06
2022-09-07T11:00:09.560Z,68.32
2022-09-07T11:01:05.137Z,68.95
2022-09-07T11:02:03.519Z,58.22
2022-09-07T11:03:33.362Z,62.10
2022-09-07T11:04:30.943Z,68.20
2022-09-07T11:05:05.300Z,65.04
2022-09-07T11:06:04.053Z,62.98
2022-09-07T11:07:04.438Z,67.10
2022-09-07T11:08:03.432Z,65.72
2022-09-07T11:09:19.602Z,61.92
2022-09-07T11:10:05.552Z,65.62
2022-09-07T11:12:37.509Z,65.68
2022-09-07T11:13:03.365Z,60.32
2022-09-07T11:14:13.112Z,67.15
2022-09-07T11:15:31.442Z,66.36
2022-09-07T11:16:54.517Z,55.42
2022-09-07T11:17:36.660Z,61.19
2022-09-07T11:18:04.154Z,64.74
2022-09-07T11:19:38.062Z,64.19
2022-09-07T11:23:01.409Z,60.05
2022-09-07T11:24:01.942Z,64.07
2022-09-07T11:26:04.612Z,65.58
2022-09-07T11:27:03.449Z,50.00
2022-09-07T11:28:04.073Z,57.60
2022-09-07T11:30:05.459Z,60.22
2022-09-07T11:31:03.500Z,65.63
2022-09-07T11:32:07.123Z,66.48
2022-09-07T11:33:03.588Z,60.17
2022-09-07T11:35:04.546Z,62.21
2022-09-07T11:36:02.569Z,64.35
2022-09-07T11:37:02.603Z,62.26
2022-09-07T11:38:02.628Z,65.67
2022-09-07T11:39:05.463Z,63.54
2022-09-07T11:40:04.498Z,67.64
2022-09-07T11:41:05.530Z,57.92
2022-09-07T11:42:42.713Z,64.60
2022-09-07T11:43:03.576Z,65.50
2022-09-07T11:44:04.449Z,66.25
2022-09-07T11:45:04.037Z,64.10
2022-09-07T11:46:02.477Z,65.43
2022-09-07T11:47:02.429Z,64.59
2022-09-07T11:48:02.599Z,60.14
2022-09-07T11:49:04.453Z,67.65
2022-09-07T11:50:04.240Z,62.21
2022-09-07T11:51:36.115Z,66.02
2022-09-07T11:52:06.132Z,63.68
2022-09-07T11:53:35.692Z,62.76
2022-09-07T11:54:36.602Z,57.44
2022-09-07T11:55:02.379Z,62.32
2022-09-07T11:56:03.262Z,56.04
2022-09-07T11:57:02.337Z,64.92
2022-09-07T11:58:02.364Z,58.70
2022-09-07T11:59:02.283Z,66.68
2022-09-07T12:00:02.343Z,61.92
2022-09-07T12:01:02.318Z,67.71
2022-09-07T12:02:02.298Z,62.71
2022-09-07T12:03:02.367Z,63.51
2022-09-07T12:04:02.437Z,62.64
2022-09-07T12:05:02.369Z,65.28
2022-09-07T12:06:02.286Z,63.14
2022-09-07T12:07:02.429Z,66.42
2022-09-07T12:08:03.212Z,67.08
2022-09-07T12:09:02.246Z,64.87
2022-09-07T12:10:02.287Z,63.81
2022-09-07T12:11:02.367Z,67.31
2022-09-07T12:12:02.260Z,61.58
2022-09-07T12:13:35.681Z,64.58
2022-09-07T12:14:02.192Z,64.83
2022-09-07T12:15:02.248Z,67.58
2022-09-07T12:16:02.307Z,63.57
2022-09-07T12:17:02.340Z,65.10
2022-09-07T12:18:03.107Z,66.48
2022-09-07T12:19:02.390Z,67.55
2022-09-07T12:20:02.266Z,67.43
2022-09-07T12:21:02.308Z,67.24
2022-09-07T12:22:02.281Z,65.09
2022-09-07T12:23:05.269Z,63.46
2022-09-07T12:24:03.168Z,66.24
2022-09-07T12:25:03.102Z,58.95
2022-09-07T12:26:02.289Z,66.72
2022-09-07T12:27:02.183Z,68.75
2022-09-07T12:28:02.180Z,65.05
2022-09-07T12:29:02.613Z,63.20
2022-09-07T12:30:02.188Z,61.59
2022-09-07T12:31:02.342Z,66.83
2022-09-07T12:33:04.257Z,57.54
2022-09-07T12:34:02.101Z,54.76
2022-09-07T12:35:02.276Z,57.61
2022-09-07T12:36:02.821Z,66.75
2022-09-07T12:37:03.606Z,66.62
2022-09-07T12:38:02.216Z,65.91
2022-09-07T12:39:03.112Z,67.33
2022-09-07T12:40:02.262Z,60.35
2022-09-07T12:41:02.067Z,66.20
2022-09-07T12:43:09.926Z,69.41
2022-09-07T12:44:04.063Z,67.30
2022-09-07T12:45:02.079Z,63.77
2022-09-07T12:46:02.934Z,65.36
2022-09-07T12:47:02.896Z,62.16
2022-09-07T12:48:02.716Z,66.50
2022-09-07T12:49:02.080Z,67.48
2022-09-07T12:50:03.349Z,65.31
2022-09-07T12:51:02.081Z,64.11
2022-09-07T12:52:09.128Z,65.25
2022-09-07T12:53:04.938Z,59.01
2022-09-07T12:54:02.056Z,66.55
2022-09-07T12:55:26.144Z,68.59
2022-09-07T12:56:19.414Z,64.74
2022-09-07T12:58:03.953Z,68.25
2022-09-07T12:59:03.632Z,66.78
2022-09-07T13:00:35.269Z,65.99
2022-09-07T13:01:36.470Z,69.37
2022-09-07T13:02:36.929Z,55.21
2022-09-07T13:03:52.112Z,68.84
2022-09-07T13:04:34.387Z,70.41
2022-09-07T13:05:35.951Z,67.69
2022-09-07T13:07:36.042Z,57.01
2022-09-07T13:08:08.838Z,67.57
2022-09-07T13:09:29.563Z,65.51
2022-09-07T13:10:01.859Z,66.50
2022-09-07T13:11:01.825Z,61.30
2022-09-07T13:12:01.862Z,66.09
2022-09-07T13:13:01.791Z,67.53
2022-09-07T13:14:04.765Z,64.55
2022-09-07T13:15:02.947Z,67.26
2022-09-07T13:16:01.954Z,64.19
2022-09-07T13:17:17.350Z,67.85
2022-09-07T13:18:03.784Z,67.69
2022-09-07T13:19:02.014Z,62.86
2022-09-07T13:20:02.460Z,63.85
2022-09-07T13:21:01.735Z,68.24
2022-09-07T13:22:02.101Z,63.54
2022-09-07T13:23:01.732Z,65.96
2022-09-07T13:24:45.772Z,60.18
2022-09-07T13:25:03.736Z,59.14
2022-09-07T13:26:02.611Z,66.75
2022-09-07T13:27:01.705Z,58.25
2022-09-07T13:28:02.467Z,68.20
2022-09-07T13:29:01.915Z,68.16
2022-09-07T13:30:01.762Z,65.84
2022-09-07T13:31:01.792Z,63.60
2022-09-07T13:35:08.515Z,67.83
2022-09-07T13:39:36.136Z,66.93
2022-09-07T13:40:01.205Z,61.62
2022-09-07T13:41:33.601Z,68.48
2022-09-07T13:42:01.787Z,69.98
2022-09-07T13:43:01.112Z,66.38
2022-09-07T13:44:01.164Z,65.90
2022-09-07T13:45:01.098Z,65.30
2022-09-07T13:46:01.348Z,65.73
2022-09-07T13:47:01.826Z,63.32
2022-09-07T13:48:01.058Z,65.64
2022-09-07T13:49:01.071Z,66.84
2022-09-07T13:50:01.049Z,66.15
2022-09-07T13:51:01.069Z,68.64
2022-09-07T13:52:33.524Z,61.62
2022-09-07T13:53:01.034Z,71.10
2022-09-07T13:54:01.054Z,68.83
2022-09-07T13:55:33.853Z,66.87
2022-09-07T13:56:33.556Z,64.59
2022-09-07T13:57:34.328Z,65.02
2022-09-07T13:58:33.408Z,66.47
2022-09-07T13:59:01.036Z,71.87
2022-09-07T14:00:01.022Z,68.62
2022-09-07T14:01:01.083Z,69.21
2022-09-07T14:02:01.026Z,68.80
2022-09-07T14:03:00.974Z,66.13
2022-09-07T14:04:01.002Z,59.93
2022-09-07T14:05:01.076Z,67.05
2022-09-07T14:06:00.922Z,63.14
2022-09-07T14:07:01.003Z,66.07
2022-09-07T14:08:01.521Z,67.63
2022-09-07T14:09:00.949Z,67.22
2022-09-07T14:10:01.141Z,66.76
2022-09-07T14:11:00.971Z,69.74
2022-09-07T14:12:01.007Z,65.84
2022-09-07T14:13:00.995Z,67.11
2022-09-07T14:14:02.014Z,66.25
2022-09-07T14:15:01.723Z,65.78
2022-09-07T14:16:02.605Z,64.63
2022-09-07T14:17:00.902Z,67.80
2022-09-07T14:18:00.893Z,63.81
2022-09-07T14:19:00.839Z,69.70
2022-09-07T14:20:00.899Z,69.49
2022-09-07T14:21:01.479Z,65.97
2022-09-07T14:22:00.877Z,66.73
2022-09-07T14:23:00.806Z,64.12
2022-09-07T14:24:01.522Z,70.17
2022-09-07T14:25:01.580Z,64.02
2022-09-07T14:26:17.191Z,65.87
2022-09-07T14:27:02.795Z,67.92
2022-09-07T14:28:01.237Z,66.02
2022-09-07T14:29:00.773Z,65.52
2022-09-07T14:30:00.794Z,60.25
2022-09-07T14:31:00.832Z,69.28
2022-09-07T14:32:00.812Z,69.02
2022-09-07T14:33:00.943Z,66.28
2022-09-07T14:34:00.758Z,64.58
2022-09-07T14:35:01.018Z,66.70
2022-09-07T14:36:09.237Z,65.93